• Join FlightAware (Why Join?)
  • Login
  • US Flag 
01:32PM EDT


 

Airport Tracker/Info


-or-


 

Live Flight TrackerFlight Track Log ✈ DAL571 ✈ 27-Apr-2014 ✈ KATL - TIST / STT

Flight Track Log - Related Links

Times and Time Zones

All times are in EDT time to prevent confusion due to time zone crossing. See the DAL571 flight status page for this flight to view local times or setup timezone preferences in your user account.

Time Position Orientation Groundspeed Altitude Reporting Facility
EDT Latitude Longitude Course Direction KTS MPH feet Rate Location/Type
10:16AM 33.6167 -84.4833 145° Southeast 185 213 3,000  Level Atlanta TRACON
10:17AM 33.5833 -84.5667 244° Southwest 254 292 5,100 2,160 Climbing Atlanta TRACON
10:18AM 33.5489 -84.5947 214° Southwest 360 414 6,800 2,700 Climbing Atlanta Center
10:19AM 33.2518 -84.1348 140° Southeast  Level FlightAware Approximate
10:19AM 33.4717 -84.5867 175° South 270 311 9,800  Level Atlanta Center
10:20AM 33.1516 -84.0348 140° Southeast  Level FlightAware Approximate
10:20AM 33.4133 -84.5167 135° Southeast 270 311 11,600  Level Atlanta Center
10:21AM 33.0539 -83.9420 145° Southeast  Level FlightAware Approximate
10:21AM 33.3533 -84.4194 126° Southeast 349 402 13,400  Level Atlanta Center
10:22AM 33.2889 -84.3147 126° Southeast 379 436 15,800 2,160 Climbing Atlanta Center
10:23AM 33.2139 -84.1953 127° Southeast 397 457 17,800 1,920 Climbing Atlanta Center
10:24AM 33.1431 -84.0761 125° Southeast 421 484 19,700 1,800 Climbing Atlanta Center
10:25AM 33.0658 -83.9669 130° Southeast 435 501 21,500 1,740 Climbing Atlanta Center
10:26AM 32.9739 -83.8828 142° Southeast 446 513 23,200 1,680 Climbing Atlanta Center
10:27AM 32.8694 -83.7964 145° Southeast 451 519 24,900 1,560 Climbing Atlanta Center
10:28AM 32.7628 -83.7103 146° Southeast 462 532 26,400 1,200 Climbing Atlanta Center
10:29AM 32.6517 -83.6244 147° Southeast 474 545 27,400 960 Climbing Atlanta Center
10:30AM 32.5386 -83.5339 146° Southeast 486 559 28,400 1,380 Climbing Atlanta Center
10:31AM 32.4194 -83.4408 147° Southeast 498 573 30,200 1,620 Climbing Atlanta Center
10:32AM 32.2936 -83.3436 147° Southeast 503 579 31,700 1,440 Climbing Atlanta Center
10:32AM 32.2264 -83.2881 145° Southeast 500 575 32,700 1,500 Climbing Jacksonville Center
10:33AM 32.1139 -83.2042 148° Southeast 500 575 34,300 1,440 Climbing Jacksonville Center
10:34AM 32.0036 -83.1181 146° Southeast 495 570 35,600 1,200 Climbing Jacksonville Center
10:35AM 31.8931 -83.0319 147° Southeast 484 557 36,700 1,200 Climbing Jacksonville Center
10:36AM 31.7822 -82.9464 147° Southeast 479 551 38,000 600 Climbing Jacksonville Center
10:37AM 31.6739 -82.8658 148° Southeast 479 551 38,000  Level Jacksonville Center
10:38AM 31.5631 -82.7828 147° Southeast 473 544 38,000  Level Jacksonville Center
10:39AM 31.4522 -82.6978 147° Southeast 473 544 38,000  Level Jacksonville Center
10:40AM 31.3331 -82.6128 149° Southeast 470 541 38,000  Level Jacksonville Center
10:41AM 31.2222 -82.5306 148° Southeast 465 535 38,000  Level Jacksonville Center
10:42AM 31.1133 -82.4486 147° Southeast 470 541 38,000  Level Jacksonville Center
10:43AM 31.0025 -82.3617 146° Southeast 475 547 38,000  Level Jacksonville Center
10:44AM 30.8936 -82.2800 147° Southeast 475 547 38,000  Level Jacksonville Center
10:45AM 30.7825 -82.1986 148° Southeast 475 547 38,000  Level Jacksonville Center
10:46AM 30.6714 -82.1147 147° Southeast 475 547 38,000  Level Jacksonville Center
10:47AM 30.5642 -82.0361 148° Southeast 475 547 38,000  Level Jacksonville Center
10:48AM 30.4531 -81.9481 146° Southeast 480 552 38,000  Level Jacksonville Center
10:49AM 30.3564 -81.8742 147° Southeast 480 552 38,000  Level Jacksonville Center
10:50AM 30.2431 -81.7939 149° Southeast 475 547 38,000  Level Jacksonville Center
10:51AM 30.1317 -81.7158 149° Southeast 475 547 38,000  Level Jacksonville Center
10:52AM 30.0222 -81.6356 148° Southeast 475 547 38,000  Level Jacksonville Center
10:53AM 29.9108 -81.5556 148° Southeast 475 547 38,000  Level Jacksonville Center
10:54AM 29.8014 -81.4781 148° Southeast 475 547 38,000  Level Jacksonville Center
10:55AM 29.6900 -81.3958 147° Southeast 475 547 38,000  Level Jacksonville Center
10:56AM 29.5803 -81.3164 148° Southeast 475 547 38,000  Level Jacksonville Center
10:57AM 29.4686 -81.2325 147° Southeast 475 547 38,000  Level Jacksonville Center
10:58AM 29.3592 -81.1556 148° Southeast 475 547 38,000  Level Jacksonville Center
11:00AM 29.1539 -80.9531 139° Southeast 484 557 38,000  Level Miami Center
11:01AM 29.0569 -80.8472 136° Southeast 484 557 38,000  Level Miami Center
11:02AM 28.9594 -80.7442 137° Southeast 484 557 38,000  Level Miami Center
11:03AM 28.8644 -80.6319 134° Southeast 489 563 38,000  Level Miami Center
11:04AM 28.7800 -80.5128 129° Southeast 484 557 38,000  Level Miami Center
11:05AM 28.7119 -80.3947 123° Southeast 490 564 38,000  Level Miami Center
11:06AM 28.6378 -80.2694 124° Southeast 490 564 38,000  Level Miami Center
11:07AM 28.5536 -80.1275 124° Southeast 490 564 38,000  Level Miami Center
11:08AM 28.4769 -80.0000 124° Southeast 496 571 38,000  Level Miami Center
11:09AM 28.3983 -79.8750 126° Southeast 496 571 38,000  Level Miami Center
11:10AM 28.3239 -79.7481 124° Southeast 496 571 38,000  Level Miami Center
11:11AM 28.2469 -79.6211 125° Southeast 496 571 38,000  Level Miami Center
11:12AM 28.1761 -79.5089 126° Southeast 490 564 38,000  Level Miami Center
11:13AM 28.0989 -79.3844 125° Southeast 490 564 38,000  Level Miami Center
11:14AM 28.0239 -79.2606 124° Southeast 485 558 38,000  Level Miami Center
11:15AM 27.9486 -79.1344 124° Southeast 485 558 38,000  Level Miami Center
11:16AM 27.8692 -79.0083 125° Southeast 485 558 38,000 300 Level Miami Center
11:17AM 27.7833 -78.8706 125° Southeast 485 558 38,700 480 Climbing Miami Center
11:18AM 27.7058 -78.7472 125° Southeast 485 558 39,000 120 Climbing Miami Center
11:19AM 27.6403 -78.6358 124° Southeast 478 550 39,000  Level Miami Center
11:20AM 27.5667 -78.5131 124° Southeast 478 550 39,000 -60 Level Miami Center
11:21AM 27.4928 -78.3878 124° Southeast 478 550 38,900  Descending Miami Center
11:22AM 27.4189 -78.2606 123° Southeast 478 550 39,000  Climbing Miami Center
11:23AM 27.3469 -78.1308 122° Southeast 484 557 39,000  Level Miami Center
11:24AM 27.2708 -78.0061 124° Southeast 485 558 39,000  Level Miami Center
11:25AM 27.1944 -77.8794 124° Southeast 491 565 39,000  Level Miami Center
11:26AM 27.1219 -77.7597 124° Southeast 484 557 39,000  Level Miami Center
11:27AM 27.0475 -77.6261 122° Southeast 484 557 39,000  Level Miami Center
11:28AM 26.9731 -77.5019 124° Southeast 445 512 39,000  Level Miami Center
11:29AM 26.8900 -77.3664 124° Southeast 492 566 39,000  Level Miami Center
11:30AM 26.8153 -77.2358 123° Southeast 481 554 39,000  Level Miami Center
11:31AM 26.7403 -77.1169 125° Southeast 487 560 39,000  Level Miami Center
11:32AM 26.6653 -76.9911 124° Southeast 487 560 39,000  Level Miami Center
11:33AM 26.5922 -76.8703 124° Southeast 487 560 39,000  Level Miami Center
11:34AM 26.5169 -76.7450 124° Southeast 487 560 39,000  Level Miami Center
11:35AM 26.4394 -76.6128 123° Southeast 487 560 39,000  Level Miami Center
11:36AM 26.3681 -76.4969 125° Southeast 488 562 39,000  Level Miami Center
11:37AM 26.2925 -76.3719 124° Southeast 481 554 39,000  Level Miami Center
11:38AM 26.2147 -76.2447 124° Southeast 481 554 39,000  Level Miami Center
11:39AM 26.1431 -76.1272 124° Southeast 486 559 39,000  Level Miami Center
11:40AM 26.0608 -75.9981 125° Southeast 486 559 39,000  Level Miami Center
11:41AM 25.9869 -75.8739 123° Southeast 486 559 39,000  Level Miami Center
11:42AM 25.9131 -75.7519 124° Southeast 491 565 39,000  Level Miami Center
11:43AM 25.8325 -75.6281 126° Southeast 491 565 39,000  Level Miami Center
11:44AM 25.7603 -75.5067 123° Southeast 486 559 39,000  Level Miami Center
11:45AM 25.6883 -75.3989 127° Southeast 491 565 39,000  Level Miami Center
11:46AM 25.6139 -75.2778 124° Southeast 483 556 39,000  Level Miami Center
11:47AM 25.5372 -75.1497 124° Southeast 483 556 39,000  Level Miami Center
11:48AM 25.4583 -75.0267 125° Southeast 488 562 39,000  Level Miami Center
11:49AM 25.3839 -74.9058 124° Southeast 483 556 39,000  Level Miami Center
11:50AM 25.3047 -74.7853 126° Southeast 488 562 39,000  Level Miami Center
11:51AM 25.2258 -74.6650 126° Southeast 488 562 39,000  Level Miami Center
11:52AM 25.1322 -74.5542 133° Southeast 481 554 39,000  Level Miami Center
11:53AM 25.0406 -74.4436 132° Southeast 481 554 39,000  Level Miami Center
11:55AM 24.8572 -74.2297 133° Southeast 488 562 39,000  Level Miami Center
11:56AM 24.7694 -74.1217 132° Southeast 488 562 39,000  Level Miami Center
11:57AM 24.6775 -74.0094 132° Southeast 488 562 39,000  Level Miami Center
11:58AM 24.6181 -73.8622 114° Southeast 483 556 39,000  Level Miami Center
11:59AM 24.5775 -73.7169 107° East 477 549 39,000  Level Miami Center
12:00PM 24.5283 -73.5719 110° East 488 562 39,000  Level Miami Center
12:01PM 24.4547 -73.4486 123° Southeast 488 562 39,000  Level Miami Center
12:02PM 24.3789 -73.3319 125° Southeast 483 556 39,000  Level Miami Center
12:03PM 24.2986 -73.2089 126° Southeast 483 556 39,000  Level Miami Center
12:04PM 24.2161 -73.0883 127° Southeast 490 564 39,000  Level Miami Center
12:05PM 24.1356 -72.9656 126° Southeast 490 564 39,000  Level Miami Center
12:06PM 24.0656 -72.8472 123° Southeast 490 564 39,000  Level Miami Center
12:07PM 23.9744 -72.7228 129° Southeast 496 571 39,000  Level Miami Center
12:08PM 23.8939 -72.6028 126° Southeast 490 564 39,000  Level Miami Center
12:09PM 23.8153 -72.4875 127° Southeast 485 558 39,000  Level Miami Center
12:10PM 23.7406 -72.3586 122° Southeast 490 564 39,000  Level Miami Center
12:11PM 23.6575 -72.2414 128° Southeast 490 564 39,000  Level Miami Center
12:12PM 23.5786 -72.1172 125° Southeast 496 571 39,000  Level Miami Center
12:13PM 23.4953 -71.9936 126° Southeast 496 571 39,000  Level Miami Center
12:14PM 23.4117 -71.8703 126° Southeast 496 571 39,000  Level Miami Center
12:15PM 23.3283 -71.7492 127° Southeast 501 577 39,000  Level Miami Center
12:16PM 23.2492 -71.6281 125° Southeast 501 577 39,000  Level Miami Center
12:18PM 23.0817 -71.3800 126° Southeast 506 582 39,000  Level Miami Center
12:19PM 22.9978 -71.2550 126° Southeast 511 588 39,000  Level Miami Center
12:20PM 22.9136 -71.1325 127° Southeast 511 588 39,000  Level Miami Center
12:21PM 22.8386 -71.0233 127° Southeast 510 587 39,000  Level Miami Center
12:22PM 22.7544 -70.9011 127° Southeast 510 587 39,000  Level Miami Center
12:23PM 22.6703 -70.7767 126° Southeast 516 594 39,000  Level Miami Center
12:24PM 22.5858 -70.6525 126° Southeast 511 588 39,000  Level Miami Center
12:25PM 22.5017 -70.5331 127° Southeast 511 588 39,000  Level Miami Center
12:26PM 22.4172 -70.4094 126° Southeast 511 588 39,000  Level Miami Center
12:27PM 22.3328 -70.2858 126° Southeast 516 594 39,000  Level Miami Center
12:28PM 22.2481 -70.1644 127° Southeast 511 588 39,000  Level Miami Center
12:29PM 22.1633 -70.0389 126° Southeast 516 594 39,000  Level Miami Center
12:30PM 22.0806 -69.9181 126° Southeast 516 594 39,000  Level Miami Center
12:31PM 21.9936 -69.7928 127° Southeast 516 594 39,000  Level Miami Center
12:32PM 21.9067 -69.6725 128° Southeast 516 594 39,000  Level Miami Center
12:33PM 21.8214 -69.5453 126° Southeast 516 594 39,000  Level Miami Center
12:34PM 21.7322 -69.4231 128° Southeast 521 600 39,000  Level Miami Center
12:35PM 21.6489 -69.2986 126° Southeast 515 593 39,000  Level Miami Center
12:36PM 21.5594 -69.1744 128° Southeast 520 598 39,000  Level Miami Center
12:37PM 21.4697 -69.0506 128° Southeast 520 598 39,000  Level Miami Center
12:38PM 21.3903 -68.9239 124° Southeast 520 598 39,000  Level Miami Center
12:39PM 21.3006 -68.7981 127° Southeast 529 609 39,000  Level Miami Center
12:40PM 21.2106 -68.6722 127° Southeast 529 609 39,000  Level Miami Center
12:41PM 21.1164 -68.5494 129° Southeast 534 615 39,000  Level Miami Center
12:42PM 21.0283 -68.4239 127° Southeast 534 615 39,000  Level Miami Center
12:43PM 20.9403 -68.2964 126° Southeast 534 615 39,000  Level Miami Center
12:44PM 20.8233 -68.1797 137° Southeast 534 615 39,000  Level Miami Center
12:45PM 20.7597 -68.0467 117° Southeast 530 610 39,000  Level Miami Center
12:46PM 20.6672 -67.9244 129° Southeast 535 616 39,000  Level Miami Center
12:47PM 20.5750 -67.8022 129° Southeast 535 616 39,000  Level Miami Center
12:48PM 20.4756 -67.6697 129° Southeast 535 616 39,000  Level Miami Center
12:50PM 20.3333 -67.5000 132° Southeast 520 598 39,000  Level San Juan Center
12:51PM 20.2500 -67.3833 127° Southeast 520 598 39,000  Level San Juan Center
12:52PM 20.1500 -67.2667 132° Southeast 520 598 39,000  Level San Juan Center
12:53PM 20.0667 -67.1500 127° Southeast 520 598 39,000  Level San Juan Center
12:54PM 19.9667 -67.0333 132° Southeast 520 598 39,000 -360 Level San Juan Center
12:55PM 19.8833 -66.9167 127° Southeast 520 598 38,300 -1,020 Descending San Juan Center
12:56PM 19.7833 -66.7833 129° Southeast 520 598 37,000 -1,320 Descending San Juan Center
12:57PM 19.7000 -66.6667 127° Southeast 520 598 35,700 -1,500 Descending San Juan Center
12:58PM 19.6167 -66.5333 124° Southeast 530 610 34,000 -2,160 Descending San Juan Center
12:59PM 19.5333 -66.4000 124° Southeast 550 633 31,400 -2,760 Descending San Juan Center
01:00PM 19.4500 -66.2667 124° Southeast 530 610 28,500 -2,040 Descending San Juan Center
01:01PM 19.3667 -66.1500 127° Southeast 510 587 27,400 -1,440 Descending San Juan Center
01:02PM 19.2667 -66.0333 132° Southeast 510 587 25,700 -2,400 Descending San Juan Center
01:03PM 19.1667 -65.9333 137° Southeast 500 575 22,700 -2,460 Descending San Juan Center
01:04PM 19.0667 -65.8333 137° Southeast 470 541 20,800 -1,860 Descending San Juan Center
01:05PM 18.9500 -65.7333 141° Southeast 460 529 19,000 -2,460 Descending San Juan Center
01:06PM 18.8667 -65.6500 137° Southeast 440 506 15,900 -3,000 Descending San Juan Center
01:07PM 18.7667 -65.5667 142° Southeast 410 472 13,100 -2,640 Descending San Juan Center
01:08PM 18.7000 -65.5000 137° Southeast 360 414 10,700 -2,040 Descending San Juan Center
01:09PM 18.6167 -65.4500 150° Southeast 320 368 9,100 -1,620 Descending San Juan Center
01:10PM 18.5667 -65.4000 137° Southeast 280 322 7,500 -1,560 Descending San Juan Center
01:11PM 18.5167 -65.3333 128° Southeast 270 311 6,000 -1,440 Descending San Juan Center
01:12PM 18.4500 -65.2833 145° Southeast 260 299 4,600 -1,260 Descending San Juan Center
01:13PM 18.4000 -65.2333 136° Southeast 260 299 3,500 -840 Descending San Juan Center
01:14PM 18.3500 -65.2000 148° Southeast 230 265 3,000 -360 Descending San Juan Center
01:15PM 18.3167 -65.1333 118° Southeast 190 219 2,800 -480 Descending San Juan Center
01:16PM 18.3333 -65.0833 71° East 180 207 2,100 -780 Descending San Juan Center
01:17PM 18.3333 -65.0333 90° East 170 196 1,300 -900 Descending San Juan Center
01:18PM 18.3333 -64.9833 90° East 150 173 400 -900 Descending San Juan Center